D/T METAR WX W/DIR W/SPE G/SPE TEMP DEWP
19/03/19 02:50 EGWU 190250Z AUTO 24002KT 9999 // FEW050/// OVC090/// 07/06 Q1024 WSW (240°) 2.3mph 7°C 6°C
19/03/19 01:50 EGWU 190150Z AUTO 23003KT 9999 // FEW042/// OVC090/// 07/05 Q1024 SW (230°) 3.5mph 7°C 5°C
19/03/19 00:50 EGWU 190050Z AUTO 24002KT 9999 // SCT042/// OVC090/// 07/05 Q1024 WSW (240°) 2.3mph 7°C 5°C
18/03/19 23:50 EGWU 182350Z AUTO 27003KT 9999 // SCT045/// OVC090/// 07/05 Q1024 W (270°) 3.5mph 7°C 5°C
18/03/19 22:50 EGWU 182250Z 21002KT 9999 BKN045 07/05 Q1024 NOSIG SSW (210°) 2.3mph 7°C 5°C
18/03/19 21:50 EGWU 182150Z 19002KT 9999 BKN045 07/05 Q1024 NOSIG S (190°) 2.3mph 7°C 5°C
18/03/19 20:53 EGWU 182053Z 24003KT 9999 BKN045 07/05 Q1023 NOSIG WSW (240°) 3.5mph 7°C 5°C
18/03/19 19:50 EGWU 181950Z 25002KT 9999 SCT036 07/05 Q1023 BLU NOSIG WSW (250°) 2.3mph 7°C 5°C
18/03/19 18:50 EGWU 181850Z 22002KT 9999 SCT040 08/05 Q1022 BLU NOSIG SW (220°) 2.3mph 8°C 5°C
18/03/19 17:50 EGWU 181750Z 24004KT 9999 FEW030 SCT060 08/04 Q1022 NOSIG WSW (240°) 4.6mph 8°C 4°C
18/03/19 16:50 EGWU 181650Z 28007KT 9999 VCSH FEW030 SCT100 BKN200 09/04 Q1021 BLU NOSIG VCSH W (280°) 8.1mph 9°C 4°C
18/03/19 15:50 EGWU 181550Z 29007KT 9999 -SHRA FEW030 SCT045 BKN200 10/03 Q1021 BLU NOSIG -SHRA WNW (290°) 8.1mph 10°C 3°C
18/03/19 14:50 EGWU 181450Z 29010KT 9999 FEW036 BKN060 BKN250 10/03 Q1021 BLU NOSIG WNW (290°) 11.5mph 10°C 3°C
18/03/19 13:50 EGWU 181350Z 29012KT 9999 FEW036 SCT060 BKN250 11/01 Q1020 NOSIG WNW (290°) 13.8mph 11°C 1°C
18/03/19 12:50 EGWU 181250Z 28007KT 9999 SCT032 BKN250 11/03 Q1020 NOSIG W (280°) 8.1mph 11°C 3°C
18/03/19 11:50 EGWU 181150Z 31008KT 9999 SCT031 BKN250 10/03 Q1021 BLU NOSIG NW (310°) 9.2mph 10°C 3°C
18/03/19 10:50 EGWU 181050Z 32010KT 9999 SCT026 BKN250 09/03 Q1021 NOSIG NW (320°) 11.5mph 9°C 3°C
18/03/19 09:50 EGWU 180950Z 25006KT 9999 FEW020 SCT110 BKN250 08/04 Q1020 BLU TEMPO SCT022 WHT WSW (250°) 6.9mph 8°C 4°C
18/03/19 08:50 EGWU 180850Z 26007KT CAVOK 07/04 Q1020 BLU TEMPO SCT018 WHT W (260°) 8.1mph 7°C 4°C
18/03/19 07:50 EGWU 180750Z 28008KT CAVOK 06/03 Q1019 NOSIG W (280°) 9.2mph 6°C 3°C
18/03/19 06:50 EGWU 180650Z 27005KT CAVOK 04/02 Q1019 BLU NOSIG W (270°) 5.8mph 4°C 2°C
18/03/19 05:50 EGWU 180550Z AUTO 28007KT 9999 // BKN140/// BKN210/// 04/02 Q1018 W (280°) 8.1mph 4°C 2°C
18/03/19 04:50 EGWU 180450Z AUTO 27007KT 9999 // FEW050/// OVC150/// 04/02 Q1017 W (270°) 8.1mph 4°C 2°C
18/03/19 03:50 EGWU 180350Z AUTO 29008KT 9999 // BKN200/// 04/02 Q1017 WNW (290°) 9.2mph 4°C 2°C
18/03/19 02:50 EGWU 180250Z AUTO 26006KT 9999 // NCD 04/02 Q1016 W (260°) 6.9mph 4°C 2°C
18/03/19 01:50 EGWU 180150Z AUTO 26006KT 9999 // FEW050/// 04/02 Q1016 W (260°) 6.9mph 4°C 2°C
18/03/19 00:50 EGWU 180050Z AUTO 30008KT 9999 // NCD 04/02 Q1015 WNW (300°) 9.2mph 4°C 2°C
17/03/19 23:50 EGWU 172350Z AUTO 28006KT 9999 // FEW050/// 05/03 Q1014 W (280°) 6.9mph 5°C 3°C
17/03/19 22:50 EGWU 172250Z AUTO 30011KT 9999 // NCD 06/03 Q1013 WNW (300°) 12.7mph 6°C 3°C
17/03/19 21:50 EGWU 172150Z AUTO 28010KT 9999 // BKN042/// 06/03 Q1013 W (280°) 11.5mph 6°C 3°C
17/03/19 20:50 EGWU 172050Z AUTO 28009KT 9999 // FEW046/// 06/03 Q1012 W (280°) 10.4mph 6°C 3°C
17/03/19 19:50 EGWU 171950Z 29011KT 9999 FEW025 SCT045 06/02 Q1011 WNW (290°) 12.7mph 6°C 2°C
17/03/19 18:50 EGWU 171850Z 28012KT 9999 FEW027 SCT034 BKN060 06/02 Q1010 W (280°) 13.8mph 6°C 2°C
17/03/19 17:50 EGWU 171750Z 27012KT 9999 -SHRA SCT028CB BKN060 07/03 Q1009 NOSIG -SHRA W (270°) 13.8mph 7°C 3°C
17/03/19 16:50 EGWU 171650Z 29012KT 9999 FEW025CB BKN070 09/01 Q1008 NOSIG WNW (290°) 13.8mph 9°C 1°C
17/03/19 15:50 EGWU 171550Z 31004KT 9999 -SHRA FEW025CB SCT045 06/03 Q1007 RESHGS RESHRA BLU NOSIG -SHRA SHRA NW (310°) 4.6mph 6°C 3°C
17/03/19 14:50 EGWU 171450Z 31019G38KT 9999 VCSH SCT025CB BKN090 06/M00 Q1007 RESHGS BLU TEMPO 6000 SHGS WHT VCSH NW (310°) 21.9mph 43.7mph 6°C 0°C
17/03/19 13:50 EGWU 171350Z 27017KT 9999 7000N VCSH FEW030CB SCT050 BKN150 09/00 Q1006 WHT TEMPO 9999 NSW FEW030CB BLU VCSH W (270°) 19.6mph 9°C 0°C
17/03/19 13:34 EGWU 171334Z 28016KT 9999 7000N VCSH FEW030CB BKN050 09/M01 Q1006 WHT TEMPO 9999 NSW FEW030CB BLU VCSH W (280°) 18.4mph 9°C -1°C
17/03/19 12:50 EGWU 171250Z 29015KT 9999 FEW040 SCT060 08/M01 Q1006 BLU TEMPO 7000 SHRA SCT030CB WHT WNW (290°) 17.3mph 8°C -1°C
17/03/19 11:50 EGWU 171150Z 27018KT 9999 FEW040 BKN060 09/M00 Q1005 BLU NOSIG W (270°) 20.7mph 9°C 0°C
17/03/19 10:50 EGWU 171050Z 28016KT 9999 SCT032 BKN060 08/00 Q1005 NOSIG W (280°) 18.4mph 8°C 0°C
17/03/19 09:50 EGWU 170950Z 28015KT 9999 SCT028 BKN050 07/01 Q1004 BLU NOSIG W (280°) 17.3mph 7°C 1°C
17/03/19 08:50 EGWU 170850Z 27014KT 9999 FEW020 06/02 Q1003 BLU TEMPO SCT022 WHT W (270°) 16.1mph 6°C 2°C
17/03/19 08:50 EGWU 170850Z 27014KT 9999 FEW020 06/02 Q1003 TEMPO SCT022 W (270°) 16.1mph 6°C 2°C
17/03/19 07:50 EGWU 170750Z 27009KT 9999 FEW012 05/02 Q1003 BLU BECMG 28015G25KT W (270°) 10.4mph 5°C 2°C
17/03/19 06:50 EGWU 170650Z 27009KT 9999 FEW020 04/02 Q1001 BLU BECMG 28015G25KT W (270°) 10.4mph 4°C 2°C
17/03/19 05:50 EGWU 170550Z AUTO 27010KT 9999 // NCD 04/02 Q1000 W (270°) 11.5mph 4°C 2°C
17/03/19 04:50 EGWU 170450Z AUTO 27009KT 9999 // NCD 04/03 Q1000 W (270°) 10.4mph 4°C 3°C
17/03/19 03:50 EGWU 170350Z AUTO 27012KT 9999 // FEW017/// 05/03 Q0999 W (270°) 13.8mph 5°C 3°C
17/03/19 02:50 EGWU 170250Z AUTO 27010KT 9999 // SCT019/// 06/04 Q0998 W (270°) 11.5mph 6°C 4°C
17/03/19 01:50 EGWU 170150Z AUTO 26011KT 9999 // BKN018/// 06/05 Q0997 W (260°) 12.7mph 6°C 5°C
17/03/19 00:50 EGWU 170050Z AUTO 27010KT 9999 // SCT018/// BKN045/// BKN080/// 07/05 Q0997 W (270°) 11.5mph 7°C 5°C
16/03/19 23:50 EGWU 162350Z AUTO 28012KT 9999 // BKN070/// SCT120/// 07/05 Q0996 W (280°) 13.8mph 7°C 5°C
16/03/19 22:50 EGWU 162250Z AUTO 26013KT 6000 // FEW015/// BKN018/// 08/07 Q0996 W (260°) 15.0mph 8°C 7°C
16/03/19 21:50 EGWU 162150Z AUTO 26015KT 9000 // BKN043/// 08/07 Q0995 W (260°) 17.3mph 8°C 7°C
16/03/19 20:50 EGWU 162050Z AUTO 23014KT 3000 // BKN011/// SCT023/// 10/09 Q0994 SW (230°) 16.1mph 10°C 9°C
16/03/19 19:50 EGWU 161950Z 22018G28KT 8000 -RA BKN011 OVC018 10/08 Q0995 -RA SW (220°) 20.7mph 32.2mph 10°C 8°C
16/03/19 18:50 EGWU 161850Z 23019G31KT 7000 -RA SCT013 OVC020 10/08 Q0996 GRN TEMPO 4000 RA GRN -RA SW (230°) 21.9mph 35.7mph 10°C 8°C
16/03/19 17:50 EGWU 161750Z 23022G36KT 9999 -RA BKN018 OVC028 11/07 Q0997 WHT TEMPO 7000 BKN014 GRN -RA SW (230°) 25.3mph 41.4mph 11°C 7°C
16/03/19 16:50 EGWU 161650Z 24021KT 9999 -RA BKN023 OVC028 11/06 Q0997 NOSIG -RA WSW (240°) 24.2mph 11°C 6°C
16/03/19 15:50 EGWU 161550Z 24022G33KT 9999 OVC024 11/06 Q0998 NOSIG WSW (240°) 25.3mph 38.0mph 11°C 6°C
16/03/19 14:50 EGWU 161450Z 24023KT 9999 BKN028 12/06 Q0999 BLU TEMPO SCT024 WHT WSW (240°) 26.5mph 12°C 6°C
16/03/19 13:50 EGWU 161350Z 24023G34KT 9999 BKN025 BKN032 12/06 Q1000 BLU TEMPO BKN024 WHT WSW (240°) 26.5mph 39.1mph 12°C 6°C
16/03/19 12:50 EGWU 161250Z 24021KT 9999 BKN021 BKN030 12/07 Q1001 WHT TEMPO BKN025 BLU WSW (240°) 24.2mph 12°C 7°C
16/03/19 11:50 EGWU 161150Z 25021KT 9999 BKN025 BKN032 12/07 Q1002 TEMPO BKN024 WSW (250°) 24.2mph 12°C 7°C
16/03/19 10:50 EGWU 161050Z 25018G29KT 9999 BKN024 BKN032 11/06 Q1003 WHT BECMG BKN025 BLU WSW (250°) 20.7mph 33.4mph 11°C 6°C
16/03/19 10:36 EGWU 161036Z 25020KT 9999 BKN024 BKN032 11/06 Q1003 WHT BECMG FEW024 BKN030 BLU WSW (250°) 23.0mph 11°C 6°C
16/03/19 09:50 EGWU 160950Z 24020G31KT 9999 BKN027 BKN032 12/06 Q1003 BLU TEMPO SCT023 WHT WSW (240°) 23.0mph 35.7mph 12°C 6°C
16/03/19 08:50 EGWU 160850Z 24021G31KT 9999 -RA BKN023 BKN030 11/07 Q1004 WHT TEMPO FEW023 BKN030 BLU -RA WSW (240°) 24.2mph 35.7mph 11°C 7°C
16/03/19 07:50 EGWU 160750Z 23015KT 9999 BKN018 BKN030 11/08 Q1004 NOSIG SW (230°) 17.3mph 11°C 8°C
16/03/19 06:50 EGWU 160650Z 24018KT 9999 SCT020 BKN030 11/07 Q1005 NOSIG WSW (240°) 20.7mph 11°C 7°C
16/03/19 05:50 EGWU 160550Z AUTO 24021G31KT 9999 // OVC015/// 11/08 Q1005 WSW (240°) 24.2mph 35.7mph 11°C 8°C
16/03/19 04:50 EGWU 160450Z AUTO 24016G28KT 9999 // OVC016/// 11/08 Q1006 WSW (240°) 18.4mph 32.2mph 11°C 8°C
16/03/19 03:50 EGWU 160350Z AUTO 24017KT 9999 // BKN015/// BKN023/// 11/08 Q1007 WSW (240°) 19.6mph 11°C 8°C
16/03/19 02:50 EGWU 160250Z AUTO 24017KT 9999 // BKN016/// 11/08 Q1007 WSW (240°) 19.6mph 11°C 8°C
16/03/19 01:50 EGWU 160150Z AUTO 24014KT 9999 // BKN013/// BKN021/// 12/09 Q1008 WSW (240°) 16.1mph 12°C 9°C
16/03/19 00:50 EGWU 160050Z AUTO 24011KT 9999 // OVC009/// 12/10 Q1009 WSW (240°) 12.7mph 12°C 10°C
15/03/19 23:50 EGWU 152350Z AUTO 23007KT 9999 // OVC009/// 11/09 Q1009 SW (230°) 8.1mph 11°C 9°C
15/03/19 22:50 EGWU 152250Z AUTO 24008KT 9999 // BKN009/// 10/09 Q1010 WSW (240°) 9.2mph 10°C 9°C
15/03/19 21:50 EGWU 152150Z AUTO 25010KT 9999 // FEW021/// BKN025/// 11/07 Q1010 WSW (250°) 11.5mph 11°C 7°C
15/03/19 20:50 EGWU 152050Z AUTO 27010KT 9999 // BKN039/// 11/07 Q1010 W (270°) 11.5mph 11°C 7°C
15/03/19 19:50 EGWU 151950Z 28013KT 9999 FEW022 BKN050 11/07 Q1010 BLU TEMPO SCT018 WHT W (280°) 15.0mph 11°C 7°C
15/03/19 18:50 EGWU 151850Z 28015KT 9999 FEW024 BKN048 12/07 Q1009 BLU TEMPO SCT020 WHT W (280°) 17.3mph 12°C 7°C
15/03/19 17:50 EGWU 151750Z 28015KT 9999 FEW025 SCT030 BKN045 13/08 Q1008 BLU TEMPO BKN022 WHT W (280°) 17.3mph 13°C 8°C
15/03/19 16:50 EGWU 151650Z 28021G32KT 9999 BKN027 BKN048 14/08 Q1007 BLU TEMPO BKN022 WHT W (280°) 24.2mph 36.8mph 14°C 8°C
15/03/19 15:50 EGWU 151550Z 27020KT 9999 FEW022 BKN027 BKN250 14/09 Q1007 BLU TEMPO BKN022 WHT W (270°) 23.0mph 14°C 9°C
15/03/19 14:50 EGWU 151450Z 28021KT 9999 FEW020 BKN024 BKN032 14/09 Q1007 WHT NOSIG W (280°) 24.2mph 14°C 9°C
15/03/19 13:50 EGWU 151350Z 28023G35KT 9999 FEW018 BKN022 BKN035 14/09 Q1006 WHT TEMPO FEW0222 BKN035 BLU W (280°) 26.5mph 40.3mph 14°C 9°C
15/03/19 12:50 EGWU 151250Z 27028G41KT 9999 SCT020 BKN035 14/09 Q1006 WHT TEMPO FEW022 BKN035 BLU W (270°) 32.2mph 47.2mph 14°C 9°C
15/03/19 11:50 EGWU 151150Z 28026G41KT 9999 SCT020 BKN035 14/09 Q1006 WHT TEMPO FEW020 BKN035 BLU W (280°) 29.9mph 47.2mph 14°C 9°C
15/03/19 10:50 EGWU 151050Z 28026G37KT 9999 SCT020 BKN035 14/10 Q1005 WHT TEMPO FEW022 BKN035 BLU W (280°) 29.9mph 42.6mph 14°C 10°C
15/03/19 09:50 EGWU 150950Z 27028G39KT 9999 SCT018 BKN150 14/10 Q1005 WHT NOSIG W (270°) 32.2mph 44.9mph 14°C 10°C
15/03/19 08:50 EGWU 150850Z 27025G37KT 9999 BKN019 BKN025 13/09 Q1005 WHT NOSIG W (270°) 28.8mph 42.6mph 13°C 9°C
15/03/19 07:50 EGWU 150750Z 27021G32KT 9999 BKN018 BKN025 12/09 Q1005 NOSIG W (270°) 24.2mph 36.8mph 12°C 9°C
15/03/19 06:50 EGWU 150650Z 27024G36KT 9999 BKN017 BKN026 12/09 Q1005 NOSIG W (270°) 27.6mph 41.4mph 12°C 9°C
15/03/19 05:50 EGWU 150550Z AUTO 27022G32KT 9999 // BKN016/// BKN024/// 12/09 Q1005 W (270°) 25.3mph 36.8mph 12°C 9°C
15/03/19 04:50 EGWU 150450Z AUTO 27020KT 9999 // BKN013/// BKN018/// 12/09 Q1004 W (270°) 23.0mph 12°C 9°C
15/03/19 03:50 EGWU 150350Z AUTO 27019KT 9999 // OVC012/// 12/10 Q1004 W (270°) 21.9mph 12°C 10°C
15/03/19 02:50 EGWU 150250Z AUTO 27018KT 9999 // BKN010/// 11/10 Q1005 W (270°) 20.7mph 11°C 10°C
15/03/19 01:50 EGWU 150150Z AUTO 26016KT 7000 // FEW003/// OVC006/// 10/10 Q1005 W (260°) 18.4mph 10°C 10°C
15/03/19 00:50 EGWU 150050Z AUTO 21007KT 2500 // BKN003/// 09/09 Q1006 SSW (210°) 8.1mph 9°C 9°C
14/03/19 23:50 EGWU 142350Z AUTO 24009KT 2800 // FEW007/// BKN029/// 09/08 Q1007 WSW (240°) 10.4mph 9°C 8°C
14/03/19 22:50 EGWU 142250Z AUTO 24009KT 9999 // BKN050/// 10/07 Q1008 WSW (240°) 10.4mph 10°C 7°C
14/03/19 21:50 EGWU 142150Z AUTO 25009KT 9999 // SCT100/// BKN150/// 10/06 Q1008 WSW (250°) 10.4mph 10°C 6°C
14/03/19 20:50 EGWU 142050Z 25007KT 9999 FEW048 BKN120 09/04 Q1008 BLU NOSIG WSW (250°) 8.1mph 9°C 4°C
14/03/19 19:50 EGWU 141950Z 25005KT CAVOK 10/03 Q1008 NOSIG WSW (250°) 5.8mph 10°C 3°C
14/03/19 18:50 EGWU 141850Z 29010KT CAVOK 10/04 Q1008 NOSIG WNW (290°) 11.5mph 10°C 4°C
14/03/19 17:50 EGWU 141750Z 31013KT 9999 FEW040 BKN300 10/04 Q1007 BLU NOSIG NW (310°) 15.0mph 10°C 4°C
14/03/19 16:50 EGWU 141650Z 31011KT 9999 SCT045 BKN350 11/04 Q1006 BLU NOSIG NW (310°) 12.7mph 11°C 4°C
14/03/19 15:50 EGWU 141550Z 29017KT 9999 FEW038 BKN350 11/04 Q1005 BLU NOSIG WNW (290°) 19.6mph 11°C 4°C
14/03/19 14:50 EGWU 141450Z 32019KT 9999 FEW040 13/05 Q1004 NOSIG NW (320°) 21.9mph 13°C 5°C
14/03/19 13:50 EGWU 141350Z 31019KT 9999 FEW040 13/03 Q1003 NOSIG NW (310°) 21.9mph 13°C 3°C
14/03/19 12:50 EGWU 141250Z 31024G37KT 9999 FEW035 14/03 Q1002 NOSIG NW (310°) 27.6mph 42.6mph 14°C 3°C
14/03/19 11:50 EGWU 141150Z 31019G29KT 9999 FEW020 13/08 Q1001 RESHRA BLU NOSIG NW (310°) 21.9mph 33.4mph 13°C 8°C
14/03/19 11:32 EGWU 141132Z 31020KT 9999 FEW015 12/08 Q1001 RESHRA BLU NOSIG NW (310°) 23.0mph 12°C 8°C
14/03/19 11:15 EGWU 141115Z 30022G34KT 9999 -SHRA FEW015 SCT022 BKN050 10/08 Q1002 RESHRA WHT BECMG FEW022 BLU -SHRA WNW (300°) 25.3mph 39.1mph 10°C 8°C
14/03/19 10:39 EGWU 141039Z 28028G44KT 9999 6000W -RA SCT022 SCT030 12/09 Q1001 WHT BECMG 9999 NSW FEW020 BLU -RA W (280°) 32.2mph 50.6mph 12°C 9°C
14/03/19 09:50 EGWU 140950Z 27025G36KT 9999 BKN022 BKN028 13/09 Q1000 TEMPO 6000 SHRA W (270°) 28.8mph 41.4mph 13°C 9°C
14/03/19 08:50 EGWU 140850Z 27021KT 9999 -RA BKN020 BKN026 11/08 Q1001 WHT TEMPO 6000 SHRA WHT -RA W (270°) 24.2mph 11°C 8°C
14/03/19 07:50 EGWU 140750Z 26019KT 9999 -RA BKN018 BKN020 10/08 Q1002 TEMPO 6000 SHRA -RA W (260°) 21.9mph 10°C 8°C
14/03/19 06:50 EGWU 140650Z 25015KT 9999 -RA FEW012 BKN018 BKN020 08/07 Q1002 WHT TEMPO SCT012 GRN -RA WSW (250°) 17.3mph 8°C 7°C
14/03/19 05:50 EGWU 140550Z AUTO 25014KT 6000 // BKN013/// 08/07 Q1004 WSW (250°) 16.1mph 8°C 7°C
14/03/19 04:50 EGWU 140450Z AUTO 24012KT 5000 // BKN012/// BKN020/// 07/06 Q1005 WSW (240°) 13.8mph 7°C 6°C
14/03/19 03:50 EGWU 140350Z AUTO 24012KT 4800 // FEW014/// BKN023/// 07/06 Q1007 WSW (240°) 13.8mph 7°C 6°C
14/03/19 02:50 EGWU 140250Z AUTO 25013KT 8000 // BKN018/// SCT070/// 07/05 Q1009 WSW (250°) 15.0mph 7°C 5°C
14/03/19 01:50 EGWU 140150Z AUTO 25013KT 9999 // FEW017/// SCT080/// BKN130/// 08/05 Q1010 WSW (250°) 15.0mph 8°C 5°C
14/03/19 00:50 EGWU 140050Z AUTO 26012KT 9999 // FEW024/// BKN040/// 08/04 Q1011 W (260°) 13.8mph 8°C 4°C
13/03/19 23:50 EGWU 132350Z AUTO 27014KT 9999 // FEW027/// BKN090/// 08/03 Q1012 W (270°) 16.1mph 8°C 3°C
13/03/19 22:50 EGWU 132250Z AUTO 27013KT 9999 // BKN100/// 08/04 Q1013 W (270°) 15.0mph 8°C 4°C
13/03/19 21:50 EGWU 132150Z 25012KT 9999 FEW045 OVC100 08/03 Q1013 BLU NOSIG WSW (250°) 13.8mph 8°C 3°C
13/03/19 20:50 EGWU 132050Z 27013KT 9999 FEW045 BKN130 08/01 Q1013 BLU NOSIG W (270°) 15.0mph 8°C 1°C
13/03/19 19:50 EGWU 131950Z 28012KT CAVOK 09/01 Q1013 BLU NOSIG W (280°) 13.8mph 9°C 1°C
13/03/19 18:50 EGWU 131850Z 29013KT 9999 FEW040 BKN150 09/01 Q1013 NOSIG WNW (290°) 15.0mph 9°C 1°C
13/03/19 17:50 EGWU 131750Z 28014KT 9999 FEW040 SCT060 BKN250 09/01 Q1012 BLU TEMPO 29015G25KT W (280°) 16.1mph 9°C 1°C
13/03/19 16:50 EGWU 131650Z 30020KT 9999 SCT040 BKN060 10/02 Q1011 BLU BECMG 27015KT WNW (300°) 23.0mph 10°C 2°C
13/03/19 15:50 EGWU 131550Z 29023KT 9999 -SHRA SCT040 BKN060 09/03 Q1011 BECMG 28015KT -SHRA WNW (290°) 26.5mph 9°C 3°C
13/03/19 14:50 EGWU 131450Z 30018KT 9999 SCT046 BKN060 11/02 Q1009 NOSIG WNW (300°) 20.7mph 11°C 2°C
13/03/19 13:50 EGWU 131350Z 30025G37KT 9999 SCT042 BKN060 11/02 Q1009 NOSIG WNW (300°) 28.8mph 42.6mph 11°C 2°C
13/03/19 12:50 EGWU 131250Z 29023G34KT 9999 SCT039 SCT050 11/02 Q1008 NOSIG WNW (290°) 26.5mph 39.1mph 11°C 2°C
13/03/19 11:50 EGWU 131150Z 29023G34KT 9999 -SHRA FEW027 SCT060 10/02 Q1007 BLU NOSIG -SHRA WNW (290°) 26.5mph 39.1mph 10°C 2°C
13/03/19 10:50 EGWU 131050Z 29024G36KT 9999 SCT030 BKN038 09/03 Q1007 NOSIG WNW (290°) 27.6mph 41.4mph 9°C 3°C
13/03/19 09:50 EGWU 130950Z 28022G32KT 9999 SCT028 09/03 Q1006 BLU NOSIG W (280°) 25.3mph 36.8mph 9°C 3°C
13/03/19 08:50 EGWU 130850Z 28021G31KT 9999 SCT027 BKN038 08/03 Q1005 BLU NOSIG W (280°) 24.2mph 35.7mph 8°C 3°C